createdAt,value
2023-10-16T00:03:52.456Z,7.02
2023-10-16T00:08:56.831Z,7.02
2023-10-16T00:13:58.390Z,7.02
2023-10-16T00:19:00.828Z,6.97
2023-10-16T00:24:02.688Z,6.90
2023-10-16T00:29:17.771Z,6.85
2023-10-16T00:34:22.655Z,6.82
2023-10-16T00:39:29.197Z,6.79
2023-10-16T00:44:34.458Z,6.73
2023-10-16T00:49:36.856Z,6.64
2023-10-16T00:54:42.580Z,6.56
2023-10-16T00:59:44.263Z,6.50
2023-10-16T01:04:47.907Z,6.43
2023-10-16T01:09:50.872Z,6.36
2023-10-16T01:14:52.510Z,6.33
2023-10-16T01:19:56.682Z,6.36
2023-10-16T01:25:00.481Z,6.41
2023-10-16T01:30:02.514Z,6.47
2023-10-16T01:35:09.355Z,6.55
2023-10-16T01:40:17.873Z,6.64
2023-10-16T01:45:20.790Z,6.73
2023-10-16T01:50:22.882Z,6.80
2023-10-16T01:55:25.593Z,6.84
2023-10-16T02:00:34.856Z,6.87
2023-10-16T02:05:38.042Z,6.90
2023-10-16T02:10:41.259Z,6.88
2023-10-16T02:15:44.102Z,6.88
2023-10-16T02:20:46.504Z,6.88
2023-10-16T02:25:47.860Z,6.89
2023-10-16T02:30:50.053Z,6.88
2023-10-16T02:35:53.945Z,6.84
2023-10-16T02:41:01.228Z,6.78
2023-10-16T02:46:04.411Z,6.67
2023-10-16T02:51:07.308Z,6.55
2023-10-16T02:56:09.355Z,6.40
2023-10-16T03:01:16.652Z,6.23
2023-10-16T03:06:21.276Z,6.08
2023-10-16T03:11:22.697Z,5.97
2023-10-16T03:16:25.151Z,5.87
2023-10-16T03:21:27.910Z,5.82
2023-10-16T03:26:29.871Z,5.77
2023-10-16T03:31:36.801Z,5.76
2023-10-16T03:36:40.549Z,5.78
2023-10-16T03:41:43.628Z,5.80
2023-10-16T03:46:45.421Z,5.78
2023-10-16T03:51:48.919Z,5.75
2023-10-16T03:56:50.414Z,5.69
2023-10-16T04:01:51.918Z,5.63
2023-10-16T04:06:56.931Z,5.58
2023-10-16T04:12:05.421Z,5.51
2023-10-16T04:17:11.449Z,5.44
2023-10-16T04:22:17.442Z,5.40
2023-10-16T04:27:21.689Z,5.36
2023-10-16T04:32:48.028Z,5.35
2023-10-16T04:37:50.331Z,5.39
2023-10-16T04:43:19.730Z,5.45
2023-10-16T04:48:29.099Z,5.54
2023-10-16T04:53:30.649Z,5.63
2023-10-16T04:58:48.329Z,5.70
2023-10-16T05:04:10.046Z,5.75
2023-10-16T05:09:23.721Z,5.76
2023-10-16T05:15:00.140Z,5.80
2023-10-16T05:20:20.372Z,5.93
2023-10-16T05:25:40.782Z,6.09
2023-10-16T05:31:02.721Z,6.23
2023-10-16T05:36:23.635Z,6.37
2023-10-16T05:41:43.510Z,6.50
2023-10-16T05:47:03.996Z,6.63
2023-10-16T05:52:25.175Z,6.85
2023-10-16T05:57:45.087Z,7.54
2023-10-16T06:03:05.004Z,7.80
2023-10-16T06:08:24.989Z,7.71
2023-10-16T06:13:45.341Z,7.55
2023-10-16T06:18:49.870Z,7.46
2023-10-16T06:23:51.858Z,7.43
2023-10-16T06:28:54.485Z,7.40
2023-10-16T06:33:56.913Z,7.38
2023-10-16T06:39:06.585Z,7.38
2023-10-16T06:44:07.942Z,7.37
2023-10-16T06:49:10.172Z,7.34
2023-10-16T06:54:11.554Z,7.32
2023-10-16T06:59:16.870Z,7.37
2023-10-16T07:04:19.971Z,7.58
2023-10-16T07:09:21.924Z,7.75
2023-10-16T07:14:24.819Z,7.77
2023-10-16T07:19:26.426Z,7.79
2023-10-16T07:24:28.019Z,7.91
2023-10-16T07:29:30.253Z,7.93
2023-10-16T07:34:32.398Z,7.86
2023-10-16T07:39:37.058Z,7.79
2023-10-16T07:44:42.199Z,7.84
2023-10-16T07:49:44.164Z,8.09
2023-10-16T07:54:46.682Z,8.46
2023-10-16T07:59:48.308Z,8.66
2023-10-16T08:04:52.082Z,8.70
2023-10-16T08:09:54.118Z,8.75
2023-10-16T08:14:55.854Z,8.73
2023-10-16T08:19:57.247Z,8.74
2023-10-16T08:24:58.834Z,8.84
2023-10-16T08:30:18.621Z,8.99
2023-10-16T08:35:20.644Z,9.08
2023-10-16T08:40:24.596Z,8.93
2023-10-16T08:45:29.284Z,8.72
2023-10-16T08:50:43.325Z,8.51
2023-10-16T08:55:45.507Z,8.49
2023-10-16T09:00:49.415Z,8.81
2023-10-16T09:05:52.238Z,9.27
2023-10-16T09:10:53.996Z,9.65
2023-10-16T09:15:58.349Z,9.75
2023-10-16T09:21:01.221Z,9.68
2023-10-16T09:26:07.725Z,9.84
2023-10-16T09:31:12.442Z,10.75
2023-10-16T09:36:19.362Z,12.05
2023-10-16T09:41:38.728Z,13.48
2023-10-16T09:46:43.321Z,15.38
2023-10-16T09:52:03.427Z,17.82
2023-10-16T09:57:08.873Z,17.92
2023-10-16T10:02:18.996Z,17.05
2023-10-16T10:07:35.370Z,16.57
2023-10-16T10:12:49.342Z,17.76
2023-10-16T10:17:55.125Z,21.57
2023-10-16T10:23:05.359Z,22.36
2023-10-16T10:28:29.407Z,20.27
2023-10-16T10:34:15.158Z,18.06
2023-10-16T10:39:23.726Z,16.16
2023-10-16T10:44:32.360Z,15.17
2023-10-16T10:49:34.782Z,14.25
2023-10-16T10:54:43.510Z,13.67
2023-10-16T10:59:49.162Z,13.46
2023-10-16T11:04:59.192Z,13.37
2023-10-16T11:10:01.346Z,14.68
2023-10-16T11:15:06.937Z,15.13
2023-10-16T11:20:20.589Z,14.35
2023-10-16T11:25:22.747Z,13.46
2023-10-16T11:30:27.477Z,13.49
2023-10-16T11:35:28.850Z,15.42
2023-10-16T11:40:34.423Z,16.84
2023-10-16T11:45:37.493Z,16.79
2023-10-16T11:50:40.139Z,17.23
2023-10-16T11:55:43.672Z,16.90
2023-10-16T12:00:58.591Z,16.36
2023-10-16T12:06:00.497Z,16.56
2023-10-16T12:11:02.300Z,17.23
2023-10-16T12:21:13.118Z,17.04
2023-10-16T12:26:16.971Z,16.44
2023-10-16T12:31:18.443Z,16.73
2023-10-16T12:36:19.901Z,16.71
2023-10-16T12:41:22.587Z,16.29
2023-10-16T12:46:24.062Z,15.41
2023-10-16T12:51:25.473Z,14.64
2023-10-16T12:56:27.156Z,13.94
2023-10-16T13:01:29.185Z,13.47
2023-10-16T13:06:31.421Z,13.17
2023-10-16T13:11:33.143Z,12.81
2023-10-16T13:16:34.733Z,12.31
2023-10-16T13:21:38.922Z,11.94
2023-10-16T13:26:41.875Z,11.69
2023-10-16T13:31:47.433Z,11.48
2023-10-16T13:37:01.937Z,11.30
2023-10-16T13:42:08.828Z,11.08
2023-10-16T13:47:10.657Z,10.87
2023-10-16T13:52:12.382Z,10.80
2023-10-16T13:57:13.768Z,10.69
2023-10-16T14:02:17.531Z,10.58
2023-10-16T14:07:20.403Z,10.28
2023-10-16T14:12:26.130Z,9.87
2023-10-16T14:17:34.292Z,9.51
2023-10-16T14:22:38.501Z,9.27
2023-10-16T14:27:40.628Z,9.04
2023-10-16T14:32:42.720Z,8.86
2023-10-16T14:37:44.275Z,8.73
2023-10-16T14:42:46.682Z,8.60
2023-10-16T14:47:50.785Z,8.34
2023-10-16T14:52:52.180Z,8.02
2023-10-16T14:58:09.611Z,7.84
2023-10-16T15:03:15.381Z,7.73
2023-10-16T15:08:20.204Z,7.63
2023-10-16T15:13:22.079Z,7.55
2023-10-16T15:18:24.142Z,7.54
2023-10-16T15:23:25.496Z,7.50
2023-10-16T15:28:43.837Z,7.41
2023-10-16T15:33:48.192Z,7.33
2023-10-16T15:38:49.721Z,7.25
2023-10-16T15:43:54.397Z,7.22
2023-10-16T15:48:58.243Z,7.27
2023-10-16T15:54:00.406Z,7.28
2023-10-16T15:59:01.776Z,7.28
2023-10-16T16:04:05.218Z,7.28
2023-10-16T16:09:13.681Z,7.30
2023-10-16T16:14:18.145Z,7.37
2023-10-16T16:19:26.150Z,7.43
2023-10-16T16:24:29.123Z,7.35
2023-10-16T16:29:31.305Z,7.19
2023-10-16T16:34:34.073Z,7.05
2023-10-16T16:39:38.215Z,6.96
2023-10-16T16:44:41.735Z,6.95
2023-10-16T16:49:43.593Z,6.94
2023-10-16T16:54:44.965Z,6.94
2023-10-16T16:59:46.828Z,6.91
2023-10-16T17:04:48.609Z,6.86
2023-10-16T17:09:51.012Z,6.83
2023-10-16T17:14:52.536Z,6.72
2023-10-16T17:19:54.042Z,6.66
2023-10-16T17:24:56.001Z,6.67
2023-10-16T17:29:57.434Z,6.71
2023-10-16T17:34:59.261Z,6.69
2023-10-16T17:40:00.634Z,6.60
2023-10-16T17:45:02.050Z,6.51
2023-10-16T17:50:05.223Z,6.43
2023-10-16T17:55:07.066Z,6.41
2023-10-16T18:00:09.640Z,6.43
2023-10-16T18:05:11.304Z,6.47
2023-10-16T18:10:16.889Z,6.50
2023-10-16T18:15:19.699Z,6.50
2023-10-16T18:20:21.437Z,6.47
2023-10-16T18:25:22.901Z,6.45
2023-10-16T18:30:24.555Z,6.38
2023-10-16T18:35:26.241Z,6.24
2023-10-16T18:40:27.717Z,6.11
2023-10-16T18:45:29.633Z,6.00
2023-10-16T18:50:32.130Z,5.89
2023-10-16T18:55:33.644Z,5.78
2023-10-16T19:00:35.451Z,5.66
2023-10-16T19:05:36.833Z,5.52
2023-10-16T19:10:40.011Z,5.42
2023-10-16T19:15:42.622Z,5.33
2023-10-16T19:20:44.931Z,5.23
2023-10-16T19:25:47.916Z,5.12
2023-10-16T19:30:49.386Z,5.01
2023-10-16T19:35:51.835Z,4.93
2023-10-16T19:41:01.287Z,4.87
2023-10-16T19:46:02.706Z,4.82
2023-10-16T19:51:04.214Z,4.77
2023-10-16T19:56:05.862Z,4.71
2023-10-16T20:01:07.343Z,4.62
2023-10-16T20:06:11.914Z,4.53
2023-10-16T20:11:14.292Z,4.47
2023-10-16T20:16:16.210Z,4.43
2023-10-16T20:21:22.670Z,4.40
2023-10-16T20:26:25.763Z,4.34
2023-10-16T20:31:27.265Z,4.29
2023-10-16T20:36:29.392Z,4.25
2023-10-16T20:41:32.599Z,4.22
2023-10-16T20:46:35.904Z,4.19
2023-10-16T20:51:37.615Z,4.13
2023-10-16T20:56:40.320Z,4.06
2023-10-16T21:01:43.939Z,4.03
2023-10-16T21:06:45.306Z,4.03
2023-10-16T21:11:46.724Z,4.05
2023-10-16T21:16:48.282Z,4.05
2023-10-16T21:21:49.615Z,4.03
2023-10-16T21:26:51.091Z,4.00
2023-10-16T21:31:52.602Z,3.98
2023-10-16T21:36:54.016Z,3.96
2023-10-16T21:41:55.851Z,3.94
2023-10-16T21:46:57.559Z,3.91
2023-10-16T21:51:59.037Z,3.89
2023-10-16T21:57:01.398Z,3.84
2023-10-16T22:02:04.032Z,3.79
2023-10-16T22:07:06.210Z,3.75
2023-10-16T22:12:08.374Z,3.73
2023-10-16T22:17:12.042Z,3.73
2023-10-16T22:22:13.753Z,3.72
2023-10-16T22:27:16.434Z,3.70
2023-10-16T22:32:17.932Z,3.69
2023-10-16T22:37:19.302Z,3.66
2023-10-16T22:42:20.753Z,3.61
2023-10-16T22:47:22.226Z,3.58
2023-10-16T22:52:26.940Z,3.58
2023-10-16T22:57:28.555Z,3.58
2023-10-16T23:02:30.131Z,3.56
2023-10-16T23:07:32.146Z,3.53
2023-10-16T23:12:36.356Z,3.48
2023-10-16T23:17:40.093Z,3.41
2023-10-16T23:22:42.302Z,3.35
2023-10-16T23:27:43.701Z,3.33
2023-10-16T23:32:47.554Z,3.32
2023-10-16T23:37:49.454Z,3.35
2023-10-16T23:42:54.707Z,3.38
2023-10-16T23:47:56.198Z,3.42
2023-10-16T23:53:13.270Z,3.45
2023-10-16T23:58:19.744Z,3.46
